createdAt,value
2022-10-12T00:01:03.784Z,11.70
2022-10-12T00:03:30.468Z,11.70
2022-10-12T00:06:18.065Z,11.70
2022-10-12T00:08:45.921Z,11.60
2022-10-12T00:11:16.106Z,11.60
2022-10-12T00:13:43.138Z,11.60
2022-10-12T00:16:11.730Z,11.70
2022-10-12T00:18:39.050Z,11.70
2022-10-12T00:21:09.254Z,11.70
2022-10-12T00:23:37.262Z,11.70
2022-10-12T00:26:06.672Z,11.70
2022-10-12T00:28:34.353Z,11.70
2022-10-12T00:31:02.515Z,11.70
2022-10-12T00:33:29.732Z,11.70
2022-10-12T00:35:56.465Z,11.70
2022-10-12T00:38:23.495Z,11.70
2022-10-12T00:40:50.499Z,11.60
2022-10-12T00:43:29.903Z,11.60
2022-10-12T00:45:59.681Z,11.60
2022-10-12T00:48:26.671Z,11.60
2022-10-12T00:50:54.699Z,11.60
2022-10-12T00:53:25.774Z,11.60
2022-10-12T00:55:59.387Z,11.60
2022-10-12T00:58:31.429Z,11.50
2022-10-12T01:01:02.837Z,11.50
2022-10-12T01:03:29.735Z,11.60
2022-10-12T01:05:56.755Z,11.60
2022-10-12T01:08:23.905Z,11.60
2022-10-12T01:10:50.618Z,11.60
2022-10-12T01:13:18.256Z,11.60
2022-10-12T01:15:59.717Z,11.60
2022-10-12T01:18:43.270Z,11.60
2022-10-12T01:21:21.622Z,11.50
2022-10-12T01:24:22.572Z,11.50
2022-10-12T01:27:20.049Z,11.50
2022-10-12T01:30:07.356Z,11.40
2022-10-12T01:32:52.284Z,11.40
2022-10-12T01:35:21.796Z,11.40
2022-10-12T01:38:00.503Z,11.30
2022-10-12T01:41:05.449Z,11.30
2022-10-12T01:43:40.890Z,11.30
2022-10-12T01:46:16.553Z,11.30
2022-10-12T01:48:48.539Z,11.30
2022-10-12T01:51:43.346Z,11.20
2022-10-12T01:54:28.101Z,11.20
2022-10-12T01:57:06.265Z,11.20
2022-10-12T02:00:00.453Z,11.20
2022-10-12T02:02:27.169Z,11.20
2022-10-12T02:05:02.600Z,10.90
2022-10-12T02:07:40.978Z,11.00
2022-10-12T02:10:13.988Z,10.90
2022-10-12T02:12:43.526Z,10.80
2022-10-12T02:15:13.029Z,10.70
2022-10-12T02:17:43.374Z,10.60
2022-10-12T02:20:14.311Z,10.50
2022-10-12T02:22:43.400Z,10.50
2022-10-12T02:25:14.019Z,10.50
2022-10-12T02:27:43.266Z,10.50
2022-10-12T02:30:11.488Z,10.50
2022-10-12T02:33:13.171Z,10.40
2022-10-12T02:35:52.253Z,10.40
2022-10-12T02:38:35.356Z,10.40
2022-10-12T02:41:08.673Z,10.30
2022-10-12T02:43:52.056Z,10.30
2022-10-12T02:46:21.293Z,10.30
2022-10-12T02:48:50.720Z,10.40
2022-10-12T02:51:18.874Z,10.30
2022-10-12T02:53:46.516Z,10.40
2022-10-12T02:56:15.568Z,10.40
2022-10-12T02:58:44.659Z,10.40
2022-10-12T03:01:11.880Z,10.40
2022-10-12T03:03:39.003Z,10.30
2022-10-12T03:06:06.062Z,10.30
2022-10-12T03:08:32.803Z,10.20
2022-10-12T03:11:07.434Z,10.20
2022-10-12T03:13:34.272Z,10.10
2022-10-12T03:16:05.483Z,10.10
2022-10-12T03:18:32.791Z,10.10
2022-10-12T03:20:59.508Z,10.10
2022-10-12T03:23:26.690Z,10.10
2022-10-12T03:25:53.502Z,10.00
2022-10-12T03:28:20.586Z,9.90
2022-10-12T03:30:47.454Z,10.00
2022-10-12T03:33:14.179Z,10.00
2022-10-12T03:35:45.129Z,10.00
2022-10-12T03:38:12.918Z,10.00
2022-10-12T03:40:39.673Z,9.90
2022-10-12T03:43:06.900Z,9.90
2022-10-12T03:45:34.349Z,9.90
2022-10-12T03:48:04.861Z,9.80
2022-10-12T03:50:34.811Z,9.80
2022-10-12T03:53:03.512Z,9.80
2022-10-12T03:55:30.228Z,9.80
2022-10-12T03:57:57.198Z,9.80
2022-10-12T04:00:25.043Z,9.80
2022-10-12T04:02:51.881Z,9.90
2022-10-12T04:05:18.600Z,9.90
2022-10-12T04:07:45.472Z,10.00
2022-10-12T04:10:12.245Z,10.00
2022-10-12T04:12:38.926Z,10.00
2022-10-12T04:15:06.288Z,10.00
2022-10-12T04:17:33.096Z,10.00
2022-10-12T04:19:59.808Z,10.00
2022-10-12T04:22:26.592Z,10.10
2022-10-12T04:24:53.405Z,10.10
2022-10-12T04:27:20.170Z,10.00
2022-10-12T04:29:46.901Z,10.10
2022-10-12T04:32:13.571Z,10.10
2022-10-12T04:34:40.348Z,10.20
2022-10-12T04:37:07.224Z,10.20
2022-10-12T04:39:34.169Z,10.20
2022-10-12T04:42:00.892Z,10.20
2022-10-12T04:44:32.013Z,10.20
2022-10-12T04:47:00.043Z,10.20
2022-10-12T04:49:26.779Z,10.20
2022-10-12T04:51:53.464Z,10.30
2022-10-12T04:54:20.195Z,10.30
2022-10-12T04:56:48.294Z,10.40
2022-10-12T04:59:15.239Z,10.40
2022-10-12T05:01:42.134Z,10.40
2022-10-12T05:04:08.977Z,10.40
2022-10-12T05:06:35.841Z,10.30
2022-10-12T05:09:02.708Z,10.40
2022-10-12T05:11:29.464Z,10.40
2022-10-12T05:13:56.190Z,10.40
2022-10-12T05:16:22.955Z,10.50
2022-10-12T05:18:49.680Z,10.50
2022-10-12T05:21:16.595Z,10.50
2022-10-12T05:23:43.368Z,10.50
2022-10-12T05:26:10.080Z,10.50
2022-10-12T05:28:40.833Z,10.50
2022-10-12T05:31:08.250Z,10.60
2022-10-12T05:33:35.029Z,10.50
2022-10-12T05:36:01.819Z,10.60
2022-10-12T05:38:28.552Z,10.60
2022-10-12T05:41:00.121Z,10.60
2022-10-12T05:43:28.080Z,10.60
2022-10-12T05:45:54.969Z,10.60
2022-10-12T05:48:21.686Z,10.50
2022-10-12T05:50:48.395Z,10.50
2022-10-12T05:53:15.068Z,10.50
2022-10-12T05:55:52.795Z,10.60
2022-10-12T05:58:19.533Z,10.50
2022-10-12T06:00:46.245Z,10.50
2022-10-12T06:03:14.119Z,10.60
2022-10-12T06:05:43.238Z,10.60
2022-10-12T06:08:11.595Z,10.60
2022-10-12T06:13:17.972Z,10.70
2022-10-12T06:15:46.026Z,10.60
2022-10-12T06:18:13.918Z,10.70
2022-10-12T06:20:40.796Z,10.70
2022-10-12T06:23:07.599Z,10.70
2022-10-12T06:25:34.278Z,10.80
2022-10-12T06:28:01.043Z,10.80
2022-10-12T06:30:27.778Z,10.80
2022-10-12T06:32:54.615Z,10.80
2022-10-12T06:35:21.400Z,10.80
2022-10-12T06:37:51.690Z,10.90
2022-10-12T06:40:19.415Z,10.90
2022-10-12T06:42:46.518Z,10.90
2022-10-12T06:45:13.348Z,10.90
2022-10-12T06:47:40.115Z,10.90
2022-10-12T06:50:07.905Z,11.00
2022-10-12T06:52:35.168Z,10.90
2022-10-12T06:55:02.707Z,10.90
2022-10-12T06:57:29.578Z,10.90
2022-10-12T06:59:56.457Z,11.00
2022-10-12T07:02:23.214Z,11.00
2022-10-12T07:04:51.670Z,11.00
2022-10-12T07:07:19.119Z,11.00
2022-10-12T07:09:45.919Z,11.00
2022-10-12T07:12:12.680Z,11.00
2022-10-12T07:14:39.453Z,11.00
2022-10-12T07:17:06.240Z,11.10
2022-10-12T07:19:33.023Z,11.10
2022-10-12T07:21:59.771Z,11.20
2022-10-12T07:24:34.956Z,11.20
2022-10-12T07:27:02.806Z,11.20
2022-10-12T07:29:32.875Z,11.20
2022-10-12T07:32:00.019Z,11.20
2022-10-12T07:34:27.494Z,11.30
2022-10-12T07:36:59.573Z,11.30
2022-10-12T07:39:26.917Z,11.30
2022-10-12T07:41:54.449Z,11.40
2022-10-12T07:44:22.651Z,11.40
2022-10-12T07:46:49.632Z,11.40
2022-10-12T07:49:17.321Z,11.50
2022-10-12T07:51:44.612Z,11.50
2022-10-12T07:54:11.404Z,11.60
2022-10-12T07:56:38.885Z,11.60
2022-10-12T07:59:05.603Z,11.70
2022-10-12T08:01:32.733Z,11.80
2022-10-12T08:04:01.730Z,11.90
2022-10-12T08:06:31.599Z,11.90
2022-10-12T08:08:59.775Z,11.90
2022-10-12T08:11:27.191Z,12.00
2022-10-12T08:13:54.009Z,12.00
2022-10-12T08:16:22.192Z,12.00
2022-10-12T08:18:49.283Z,12.00
2022-10-12T08:21:16.699Z,12.10
2022-10-12T08:23:45.069Z,12.20
2022-10-12T08:26:13.015Z,12.30
2022-10-12T08:28:40.275Z,12.30
2022-10-12T08:31:09.160Z,12.30
2022-10-12T08:33:36.393Z,12.40
2022-10-12T08:36:04.953Z,12.40
2022-10-12T08:38:31.686Z,12.50
2022-10-12T08:41:06.204Z,12.60
2022-10-12T08:43:46.222Z,12.70
2022-10-12T08:46:13.070Z,12.70
2022-10-12T08:49:04.651Z,12.70
2022-10-12T08:51:36.534Z,12.80
2022-10-12T08:54:11.433Z,12.90
2022-10-12T08:56:40.288Z,13.00
2022-10-12T08:59:13.601Z,13.10
2022-10-12T09:01:59.957Z,13.10
2022-10-12T09:04:42.120Z,13.20
2022-10-12T09:07:11.699Z,13.30
2022-10-12T09:10:03.845Z,13.30
2022-10-12T09:12:49.349Z,13.30
2022-10-12T09:15:24.601Z,13.40
2022-10-12T09:17:54.386Z,13.30
2022-10-12T09:20:22.340Z,13.50
2022-10-12T09:22:55.736Z,13.40
2022-10-12T09:25:27.590Z,13.50
2022-10-12T09:27:57.424Z,13.50
2022-10-12T09:30:24.164Z,13.40
2022-10-12T09:33:21.242Z,13.50
2022-10-12T09:35:50.248Z,13.50
2022-10-12T09:38:17.265Z,13.60
2022-10-12T09:40:45.615Z,13.60
2022-10-12T09:43:15.206Z,13.60
2022-10-12T09:45:42.453Z,13.50
2022-10-12T09:48:20.129Z,13.60
2022-10-12T09:50:59.860Z,13.50
2022-10-12T09:53:43.671Z,13.60
2022-10-12T09:56:40.555Z,13.50
2022-10-12T09:59:23.663Z,13.50
2022-10-12T10:02:11.539Z,13.60
2022-10-12T10:04:43.739Z,13.60
2022-10-12T10:07:28.662Z,13.60
2022-10-12T10:10:18.605Z,13.70
2022-10-12T10:12:55.847Z,13.70
2022-10-12T10:15:35.512Z,13.70
2022-10-12T10:18:25.610Z,13.70
2022-10-12T10:20:58.611Z,13.70
2022-10-12T10:23:29.353Z,13.80
2022-10-12T10:26:08.873Z,13.80
2022-10-12T10:28:38.689Z,13.80
2022-10-12T10:31:22.399Z,13.80
2022-10-12T10:34:07.430Z,13.90
2022-10-12T10:36:40.624Z,13.90
2022-10-12T10:39:17.977Z,14.00
2022-10-12T10:41:44.916Z,14.00
2022-10-12T10:44:27.314Z,14.20
2022-10-12T10:46:56.788Z,14.20
2022-10-12T10:49:35.260Z,14.20
2022-10-12T10:52:02.838Z,14.20
2022-10-12T10:54:32.591Z,14.30
2022-10-12T10:57:13.634Z,14.40
2022-10-12T10:59:53.144Z,14.50
2022-10-12T11:02:29.205Z,14.40
2022-10-12T11:05:13.985Z,14.60
2022-10-12T11:07:54.050Z,14.60
2022-10-12T11:10:31.395Z,14.50
2022-10-12T11:13:13.883Z,14.50
2022-10-12T11:16:03.608Z,14.60
2022-10-12T11:18:54.347Z,14.60
2022-10-12T11:21:23.690Z,14.70
2022-10-12T11:24:12.058Z,14.80
2022-10-12T11:26:48.256Z,14.70
2022-10-12T11:29:17.908Z,14.70
2022-10-12T11:32:10.306Z,14.60
2022-10-12T11:34:52.732Z,14.60
2022-10-12T11:37:23.775Z,14.60
2022-10-12T11:39:54.303Z,14.60
2022-10-12T11:42:33.628Z,14.80
2022-10-12T11:45:05.108Z,14.80
2022-10-12T11:47:44.067Z,14.70
2022-10-12T11:50:19.588Z,14.70
2022-10-12T11:52:50.642Z,14.70
2022-10-12T11:55:44.266Z,14.70
2022-10-12T11:58:42.152Z,14.70
2022-10-12T12:01:38.309Z,14.70
2022-10-12T12:04:36.569Z,14.80
2022-10-12T12:07:16.928Z,14.60
2022-10-12T12:09:50.110Z,14.50
2022-10-12T12:12:28.908Z,14.60
2022-10-12T12:14:55.548Z,14.70
2022-10-12T12:17:22.283Z,14.80
2022-10-12T12:19:56.737Z,14.90
2022-10-12T12:22:34.156Z,15.00
2022-10-12T12:25:04.502Z,14.90
2022-10-12T12:27:51.348Z,14.70
2022-10-12T12:30:17.993Z,14.70
2022-10-12T12:32:49.688Z,14.80
2022-10-12T12:35:28.033Z,14.80
2022-10-12T12:38:05.372Z,14.80
2022-10-12T12:40:33.113Z,14.80
2022-10-12T12:43:19.090Z,14.70
2022-10-12T12:46:00.505Z,14.80
2022-10-12T12:48:57.770Z,14.80
2022-10-12T12:51:38.317Z,14.80
2022-10-12T12:54:07.491Z,14.70
2022-10-12T12:56:51.943Z,14.70
2022-10-12T12:59:40.593Z,14.70
2022-10-12T13:02:35.518Z,14.70
2022-10-12T13:05:21.138Z,14.60
2022-10-12T13:08:11.884Z,14.40
2022-10-12T13:10:50.700Z,14.50
2022-10-12T13:13:38.835Z,14.50
2022-10-12T13:16:08.849Z,14.50
2022-10-12T13:18:59.738Z,14.50
2022-10-12T13:21:36.350Z,14.50
2022-10-12T13:24:15.309Z,14.50
2022-10-12T13:26:45.810Z,14.60
2022-10-12T13:29:39.768Z,14.50
2022-10-12T13:32:17.510Z,14.70
2022-10-12T13:34:47.479Z,14.60
2022-10-12T13:37:15.984Z,14.60
2022-10-12T13:39:47.034Z,14.70
2022-10-12T13:42:17.514Z,14.60
2022-10-12T13:44:46.861Z,14.60
2022-10-12T13:47:26.917Z,14.60
2022-10-12T13:49:53.995Z,14.50
2022-10-12T13:52:31.722Z,14.40
2022-10-12T13:54:59.625Z,14.40
2022-10-12T13:57:29.833Z,14.40
2022-10-12T14:00:01.306Z,14.40
2022-10-12T14:02:30.490Z,14.40
2022-10-12T14:04:59.921Z,14.60
2022-10-12T14:07:39.444Z,14.50
2022-10-12T14:10:12.281Z,14.40
2022-10-12T14:12:40.330Z,14.30
2022-10-12T14:15:08.025Z,14.30
2022-10-12T14:17:46.633Z,14.40
2022-10-12T14:20:28.432Z,14.40
2022-10-12T14:22:57.329Z,14.50
2022-10-12T14:25:56.340Z,14.40
2022-10-12T14:28:37.628Z,14.40
2022-10-12T14:31:04.900Z,14.40
2022-10-12T14:33:32.676Z,14.40
2022-10-12T14:36:35.001Z,14.40
2022-10-12T14:39:13.807Z,14.40
2022-10-12T14:41:51.034Z,14.30
2022-10-12T14:44:22.884Z,14.40
2022-10-12T14:47:05.748Z,14.40
2022-10-12T14:49:44.252Z,14.30
2022-10-12T14:52:26.459Z,14.40
2022-10-12T14:57:24.494Z,14.40
2022-10-12T14:59:51.566Z,14.40
2022-10-12T15:02:32.513Z,14.40
2022-10-12T15:04:59.795Z,14.30
2022-10-12T15:07:32.575Z,14.30
2022-10-12T15:09:59.983Z,14.40
2022-10-12T15:12:30.383Z,14.40
2022-10-12T15:14:59.932Z,14.40
2022-10-12T15:17:27.233Z,14.40
2022-10-12T15:19:54.116Z,14.30
2022-10-12T15:22:23.631Z,14.20
2022-10-12T15:24:52.015Z,14.20
2022-10-12T15:27:19.163Z,14.10
2022-10-12T15:29:47.907Z,14.10
2022-10-12T15:32:16.981Z,14.20
2022-10-12T15:34:44.187Z,14.10
2022-10-12T15:37:11.404Z,14.20
2022-10-12T15:39:38.168Z,14.20
2022-10-12T15:42:05.009Z,14.10
2022-10-12T15:44:31.819Z,14.10
2022-10-12T15:47:00.854Z,14.10
2022-10-12T15:49:27.610Z,14.10
2022-10-12T15:51:55.059Z,14.10
2022-10-12T15:54:22.350Z,14.00
2022-10-12T15:56:49.159Z,14.10
2022-10-12T15:59:15.916Z,14.10
2022-10-12T16:01:43.267Z,14.10
2022-10-12T16:04:13.577Z,14.00
2022-10-12T16:06:40.765Z,13.90
2022-10-12T16:09:07.594Z,13.90
2022-10-12T16:11:34.382Z,13.80
2022-10-12T16:14:01.799Z,13.80
2022-10-12T16:16:30.087Z,13.80
2022-10-12T16:18:56.930Z,13.80
2022-10-12T16:21:23.672Z,13.80
2022-10-12T16:23:50.412Z,13.80
2022-10-12T16:26:17.243Z,13.80
2022-10-12T16:28:44.002Z,13.70
2022-10-12T16:31:13.350Z,13.60
2022-10-12T16:33:41.405Z,13.60
2022-10-12T16:36:13.897Z,13.50
2022-10-12T16:38:41.087Z,13.50
2022-10-12T16:41:13.438Z,13.50
2022-10-12T16:43:40.418Z,13.50
2022-10-12T16:46:08.079Z,13.50
2022-10-12T16:48:35.830Z,13.50
2022-10-12T16:51:09.740Z,13.50
2022-10-12T16:53:36.702Z,13.40
2022-10-12T16:56:04.357Z,13.40
2022-10-12T16:58:31.141Z,13.40
2022-10-12T17:00:57.926Z,13.30
2022-10-12T17:03:25.001Z,13.30
2022-10-12T17:05:59.997Z,13.20
2022-10-12T17:08:27.247Z,13.30
2022-10-12T17:10:54.060Z,13.20
2022-10-12T17:13:20.850Z,13.20
2022-10-12T17:15:47.547Z,13.10
2022-10-12T17:18:14.391Z,13.10
2022-10-12T17:20:41.117Z,13.10
2022-10-12T17:23:07.822Z,13.10
2022-10-12T17:25:34.525Z,13.00
2022-10-12T17:28:01.266Z,13.00
2022-10-12T17:30:28.079Z,13.00
2022-10-12T17:32:54.783Z,13.00
2022-10-12T17:35:21.558Z,13.00
2022-10-12T17:37:48.279Z,12.90
2022-10-12T17:40:15.082Z,12.90
2022-10-12T17:42:41.832Z,12.90
2022-10-12T17:45:08.917Z,12.90
2022-10-12T17:47:35.651Z,12.80
2022-10-12T17:50:02.448Z,12.80
2022-10-12T17:52:29.209Z,12.80
2022-10-12T17:54:55.943Z,12.80
2022-10-12T17:57:22.640Z,12.80
2022-10-12T17:59:49.370Z,12.80
2022-10-12T18:02:16.069Z,12.70
2022-10-12T18:04:42.868Z,12.70
2022-10-12T18:07:09.673Z,12.70
2022-10-12T18:09:36.460Z,12.60
2022-10-12T18:12:03.348Z,12.60
2022-10-12T18:14:30.032Z,12.60
2022-10-12T18:16:58.686Z,12.60
2022-10-12T18:19:25.541Z,12.50
2022-10-12T18:21:52.269Z,12.50
2022-10-12T18:24:20.637Z,12.40
2022-10-12T18:26:47.865Z,12.40
2022-10-12T18:29:15.102Z,12.30
2022-10-12T18:31:41.812Z,12.20
2022-10-12T18:34:09.984Z,12.20
2022-10-12T18:36:36.887Z,12.10
2022-10-12T18:39:04.670Z,12.10
2022-10-12T18:41:32.668Z,12.00
2022-10-12T18:44:01.256Z,11.90
2022-10-12T18:46:30.208Z,11.90
2022-10-12T18:48:57.058Z,11.80
2022-10-12T18:51:32.605Z,11.70
2022-10-12T18:54:01.120Z,11.60
2022-10-12T18:56:29.216Z,11.50
2022-10-12T18:58:57.995Z,11.50
2022-10-12T19:01:28.253Z,11.40
2022-10-12T19:03:56.941Z,11.30
2022-10-12T19:06:30.166Z,11.30
2022-10-12T19:08:57.751Z,11.20
2022-10-12T19:11:26.139Z,11.00
2022-10-12T19:13:55.011Z,11.00
2022-10-12T19:16:22.426Z,10.90
2022-10-12T19:18:54.254Z,10.90
2022-10-12T19:21:20.983Z,10.80
2022-10-12T19:23:47.716Z,10.80
2022-10-12T19:26:20.705Z,10.80
2022-10-12T19:28:47.528Z,10.70
2022-10-12T19:31:20.535Z,10.60
2022-10-12T19:33:47.651Z,10.50
2022-10-12T19:36:17.345Z,10.50
2022-10-12T19:38:45.904Z,10.40
2022-10-12T19:41:13.104Z,10.40
2022-10-12T19:43:40.137Z,10.20
2022-10-12T19:46:08.817Z,10.20
2022-10-12T19:48:36.974Z,10.30
2022-10-12T19:51:10.269Z,10.20
2022-10-12T19:53:38.036Z,10.20
2022-10-12T19:56:07.776Z,10.00
2022-10-12T19:58:34.906Z,10.00
2022-10-12T20:01:16.117Z,9.90
2022-10-12T20:03:47.606Z,9.80
2022-10-12T20:06:15.140Z,9.70
2022-10-12T20:08:43.449Z,9.70
2022-10-12T20:11:15.584Z,9.60
2022-10-12T20:13:45.650Z,9.60
2022-10-12T20:16:13.771Z,9.60
2022-10-12T20:18:40.764Z,9.60
2022-10-12T20:21:09.949Z,9.50
2022-10-12T20:23:38.415Z,9.40
2022-10-12T20:26:12.256Z,9.30
2022-10-12T20:28:39.293Z,9.30
2022-10-12T20:31:06.784Z,9.20
2022-10-12T20:33:35.371Z,9.20
2022-10-12T20:36:03.223Z,9.10
2022-10-12T20:38:29.922Z,9.10
2022-10-12T20:41:03.705Z,9.00
2022-10-12T20:43:30.492Z,9.00
2022-10-12T20:45:57.281Z,9.00
2022-10-12T20:48:24.159Z,9.00
2022-10-12T20:50:50.851Z,8.90
2022-10-12T20:53:17.585Z,8.80
2022-10-12T20:55:44.335Z,8.80
2022-10-12T20:58:11.033Z,8.70
2022-10-12T21:00:37.836Z,8.70
2022-10-12T21:03:04.716Z,8.60
2022-10-12T21:05:34.748Z,8.60
2022-10-12T21:08:01.580Z,8.60
2022-10-12T21:10:28.511Z,8.50
2022-10-12T21:12:55.319Z,8.60
2022-10-12T21:15:22.027Z,8.50
2022-10-12T21:17:48.758Z,8.50
2022-10-12T21:20:15.569Z,8.50
2022-10-12T21:22:45.459Z,8.50
2022-10-12T21:25:12.217Z,8.50
2022-10-12T21:27:38.891Z,8.50
2022-10-12T21:30:06.089Z,8.50
2022-10-12T21:32:32.843Z,8.50
2022-10-12T21:34:59.555Z,8.50
2022-10-12T21:37:29.190Z,8.50
2022-10-12T21:39:55.888Z,8.60
2022-10-12T21:42:22.649Z,8.60
2022-10-12T21:44:50.160Z,8.60
2022-10-12T21:47:18.328Z,8.70
2022-10-12T21:49:45.291Z,8.60
2022-10-12T21:52:12.031Z,8.60
2022-10-12T21:54:40.292Z,8.40
2022-10-12T21:57:07.006Z,8.40
2022-10-12T21:59:33.884Z,8.30
2022-10-12T22:02:00.684Z,8.30
2022-10-12T22:04:27.555Z,8.30
2022-10-12T22:06:58.342Z,8.40
2022-10-12T22:09:27.111Z,8.60
2022-10-12T22:11:54.347Z,8.60
2022-10-12T22:14:21.180Z,8.60
2022-10-12T22:16:48.089Z,8.70
2022-10-12T22:19:18.861Z,8.70
2022-10-12T22:21:51.107Z,8.70
2022-10-12T22:24:19.019Z,8.60
2022-10-12T22:26:45.907Z,8.60
2022-10-12T22:29:12.678Z,8.60
2022-10-12T22:31:40.764Z,8.60
2022-10-12T22:34:07.769Z,8.60
2022-10-12T22:36:34.513Z,8.60
2022-10-12T22:39:01.181Z,8.60
2022-10-12T22:41:27.889Z,8.60
2022-10-12T22:43:56.195Z,8.60
2022-10-12T22:46:26.076Z,8.70
2022-10-12T22:48:53.365Z,8.80
2022-10-12T22:51:31.348Z,8.80
2022-10-12T22:53:58.508Z,8.90
2022-10-12T22:56:25.371Z,8.80
2022-10-12T22:59:00.201Z,8.70
2022-10-12T23:01:27.940Z,8.70
2022-10-12T23:03:55.500Z,8.80
2022-10-12T23:06:22.945Z,8.80
2022-10-12T23:08:49.691Z,8.80
2022-10-12T23:11:21.864Z,8.80
2022-10-12T23:13:48.910Z,8.80
2022-10-12T23:16:21.924Z,8.90
2022-10-12T23:18:55.510Z,9.00
2022-10-12T23:21:26.648Z,8.90
2022-10-12T23:23:53.343Z,9.00
2022-10-12T23:26:22.601Z,9.00
2022-10-12T23:28:49.943Z,9.10
2022-10-12T23:31:19.283Z,9.10
2022-10-12T23:33:46.317Z,9.10
2022-10-12T23:36:17.314Z,9.10
2022-10-12T23:38:45.193Z,9.20
2022-10-12T23:41:13.000Z,9.20
2022-10-12T23:43:39.995Z,9.10
2022-10-12T23:46:07.680Z,9.10
2022-10-12T23:48:34.908Z,9.10
2022-10-12T23:51:02.030Z,9.00
2022-10-12T23:53:29.304Z,9.00
2022-10-12T23:55:56.199Z,9.00
2022-10-12T23:58:23.002Z,9.00
